Terminal Aerodrome Forecast
Issued by NWS Louisville, KY

Home | Current Version | Previous Version | Text Only | Print | Product List | Glossary On
Versions: 1 2 3 4 5 6 7 8 9 10 11 12 13 14 15 16
000
FTUS43 KLMK 242300
TAFBWG
TAF
KBWG 242321Z 2500/2524 15011KT P6SM SCT060
     FM250400 17012KT P6SM BKN200 WS020/18045KT
     FM251000 18012KT P6SM VCSH BKN040
     FM251400 19015G22KT P6SM VCTS BKN025CB
     FM251900 19014G21KT P6SM BKN030=

USA.gov is the U.S. government's official web portal to all federal, state and local government web resources and services.